Emine Anne — TCBX9 — position and weather

sailwx.info

Track history (hours):
 
Tides and Currents Weather Stations Pressure Air Temp Water Temp Dewpoint Dewpoint Depression Visibility Wind Speed Wind Dir Waves Ship Positions

Emine Anne

Last reported at 2014-Jul-29 15:13 UTC. Time now 2014-Aug-02 06:39 UTC.
Position N 37°55' E 026°24'.

Length 69 m; draft 4.3 m.

Type: Ship. MMSI: 271002305.

Date/timePositionNaut miles runAvg speedWind from/ knotsBaromVisibWave heightAir tempDewpointWater temp
2014-Jul-29 15:13N 37°55' E 026°24'5 7.2
2014-Jul-29 14:33N 37°51' E 026°27'8 7.6
2014-Jul-29 13:33N 37°44' E 026°31'8 7.9
2014-Jul-29 12:32N 37°37' E 026°36'10 7.6
2014-Jul-29 11:15N 37°29' E 026°44'7 7.4
2014-Jul-29 10:16N 37°23' E 026°49'21 7.6
2014-Jul-29 07:33N 37°07' E 027°05'8 8.2
2014-Jul-29 06:31N 36°59' E 027°10'8 7.8
2014-Jul-29 05:33N 36°56' E 027°18'14 6.8
2014-Jul-29 03:26N 36°42' E 027°20'7 7.9
2014-Jul-29 02:32N 36°37' E 027°27'20 8.4
2014-Jul-29 00:08N 36°29' E 027°50'  
Track history (hours):
 
Tides and Currents Weather Stations Pressure Air Temp Water Temp Dewpoint Dewpoint Depression Visibility Wind Speed Wind Dir Waves Ship Positions

Emine Anne

Last reported at 2014-Jul-29 15:13 UTC. Time now 2014-Aug-02 06:39 UTC.
Position N 37°55' E 026°24'.

Length 69 m; draft 4.3 m.

Type: Ship. MMSI: 271002305.

Date/timePositionNaut miles runAvg speedWind from/ knotsBaromVisibWave heightAir tempDewpointWater temp
2014-Jul-29 15:13N 37°55' E 026°24'5 7.2
2014-Jul-29 14:33N 37°51' E 026°27'8 7.6
2014-Jul-29 13:33N 37°44' E 026°31'8 7.9
2014-Jul-29 12:32N 37°37' E 026°36'10 7.6
2014-Jul-29 11:15N 37°29' E 026°44'7 7.4
2014-Jul-29 10:16N 37°23' E 026°49'21 7.6
2014-Jul-29 07:33N 37°07' E 027°05'8 8.2
2014-Jul-29 06:31N 36°59' E 027°10'8 7.8
2014-Jul-29 05:33N 36°56' E 027°18'14 6.8
2014-Jul-29 03:26N 36°42' E 027°20'7 7.9
2014-Jul-29 02:32N 36°37' E 027°27'20 8.4
2014-Jul-29 00:08N 36°29' E 027°50'  

Dump ship's entire track history